sensor_id;sensor_type;location;lat;lon;timestamp;P1;durP1;ratioP1;P2;durP2;ratioP2
28003;SDS011;15330;51.234;6.754;2023-05-10T00:01:20;24.73;;;16.40;;
28003;SDS011;15330;51.234;6.754;2023-05-10T00:03:45;20.15;;;13.63;;
28003;SDS011;15330;51.234;6.754;2023-05-10T00:06:10;21.55;;;14.60;;
28003;SDS011;15330;51.234;6.754;2023-05-10T00:08:36;22.00;;;14.80;;
28003;SDS011;15330;51.234;6.754;2023-05-10T00:11:01;21.33;;;14.05;;
28003;SDS011;15330;51.234;6.754;2023-05-10T00:13:26;21.15;;;13.98;;
28003;SDS011;15330;51.234;6.754;2023-05-10T00:15:52;20.88;;;14.85;;
28003;SDS011;15330;51.234;6.754;2023-05-10T00:18:17;20.40;;;13.55;;
28003;SDS011;15330;51.234;6.754;2023-05-10T00:20:42;25.65;;;15.75;;
28003;SDS011;15330;51.234;6.754;2023-05-10T00:23:10;25.92;;;15.68;;
28003;SDS011;15330;51.234;6.754;2023-05-10T00:25:35;23.58;;;14.80;;
28003;SDS011;15330;51.234;6.754;2023-05-10T00:28:01;26.02;;;16.88;;
28003;SDS011;15330;51.234;6.754;2023-05-10T00:30:26;23.13;;;15.50;;
28003;SDS011;15330;51.234;6.754;2023-05-10T00:32:52;21.50;;;14.85;;
28003;SDS011;15330;51.234;6.754;2023-05-10T00:35:17;24.17;;;15.07;;
28003;SDS011;15330;51.234;6.754;2023-05-10T00:37:43;21.65;;;15.15;;
28003;SDS011;15330;51.234;6.754;2023-05-10T00:40:08;20.73;;;15.13;;
28003;SDS011;15330;51.234;6.754;2023-05-10T00:42:34;21.88;;;14.60;;
28003;SDS011;15330;51.234;6.754;2023-05-10T00:44:59;21.45;;;14.80;;
28003;SDS011;15330;51.234;6.754;2023-05-10T00:47:25;22.17;;;14.13;;
28003;SDS011;15330;51.234;6.754;2023-05-10T00:49:50;20.83;;;13.60;;
28003;SDS011;15330;51.234;6.754;2023-05-10T00:52:16;18.00;;;12.40;;
28003;SDS011;15330;51.234;6.754;2023-05-10T00:54:42;18.48;;;12.55;;
28003;SDS011;15330;51.234;6.754;2023-05-10T00:57:07;17.10;;;11.38;;
28003;SDS011;15330;51.234;6.754;2023-05-10T00:59:33;16.17;;;11.52;;
28003;SDS011;15330;51.234;6.754;2023-05-10T01:01:59;17.08;;;11.20;;
28003;SDS011;15330;51.234;6.754;2023-05-10T01:04:27;20.15;;;11.95;;
28003;SDS011;15330;51.234;6.754;2023-05-10T01:06:53;14.80;;;10.45;;
28003;SDS011;15330;51.234;6.754;2023-05-10T01:12:50;24.77;;;14.95;;
28003;SDS011;15330;51.234;6.754;2023-05-10T01:15:16;18.27;;;12.45;;
28003;SDS011;15330;51.234;6.754;2023-05-10T01:17:43;18.00;;;13.13;;
28003;SDS011;15330;51.234;6.754;2023-05-10T01:20:10;18.05;;;12.27;;
28003;SDS011;15330;51.234;6.754;2023-05-10T01:33:24;19.25;;;13.75;;
28003;SDS011;15330;51.234;6.754;2023-05-10T01:38:50;22.33;;;14.15;;
28003;SDS011;15330;51.234;6.754;2023-05-10T01:44:27;23.40;;;14.63;;
28003;SDS011;15330;51.234;6.754;2023-05-10T01:47:43;19.67;;;13.93;;
28003;SDS011;15330;51.234;6.754;2023-05-10T01:49:56;21.75;;;13.98;;
28003;SDS011;15330;51.234;6.754;2023-05-10T01:52:32;23.33;;;14.45;;
28003;SDS011;15330;51.234;6.754;2023-05-10T01:55:04;22.63;;;14.68;;
28003;SDS011;15330;51.234;6.754;2023-05-10T01:57:33;23.52;;;14.68;;
28003;SDS011;15330;51.234;6.754;2023-05-10T02:00:03;23.45;;;15.13;;
28003;SDS011;15330;51.234;6.754;2023-05-10T02:02:33;23.45;;;15.23;;
28003;SDS011;15330;51.234;6.754;2023-05-10T02:05:02;21.10;;;14.48;;
28003;SDS011;15330;51.234;6.754;2023-05-10T02:07:30;25.92;;;17.13;;
28003;SDS011;15330;51.234;6.754;2023-05-10T02:09:59;21.38;;;15.27;;
28003;SDS011;15330;51.234;6.754;2023-05-10T02:12:26;21.48;;;14.02;;
28003;SDS011;15330;51.234;6.754;2023-05-10T02:14:54;20.45;;;14.02;;
28003;SDS011;15330;51.234;6.754;2023-05-10T02:17:21;23.33;;;15.07;;
28003;SDS011;15330;51.234;6.754;2023-05-10T02:19:49;23.35;;;15.20;;
28003;SDS011;15330;51.234;6.754;2023-05-10T02:22:17;19.33;;;13.77;;
28003;SDS011;15330;51.234;6.754;2023-05-10T02:24:43;28.67;;;18.13;;
28003;SDS011;15330;51.234;6.754;2023-05-10T02:27:11;22.27;;;14.25;;
28003;SDS011;15330;51.234;6.754;2023-05-10T02:29:39;23.92;;;15.85;;
28003;SDS011;15330;51.234;6.754;2023-05-10T02:32:04;20.15;;;13.65;;
28003;SDS011;15330;51.234;6.754;2023-05-10T02:34:31;18.38;;;12.43;;
28003;SDS011;15330;51.234;6.754;2023-05-10T02:36:57;19.33;;;12.60;;
28003;SDS011;15330;51.234;6.754;2023-05-10T02:39:24;16.02;;;12.10;;
28003;SDS011;15330;51.234;6.754;2023-05-10T02:41:53;18.77;;;13.00;;
28003;SDS011;15330;51.234;6.754;2023-05-10T02:44:20;19.17;;;12.88;;
28003;SDS011;15330;51.234;6.754;2023-05-10T02:46:47;17.65;;;11.73;;
28003;SDS011;15330;51.234;6.754;2023-05-10T02:49:13;22.15;;;12.60;;
28003;SDS011;15330;51.234;6.754;2023-05-10T02:51:40;15.98;;;11.43;;
28003;SDS011;15330;51.234;6.754;2023-05-10T02:54:15;18.00;;;11.80;;
28003;SDS011;15330;51.234;6.754;2023-05-10T02:56:51;16.08;;;11.25;;
28003;SDS011;15330;51.234;6.754;2023-05-10T02:59:21;17.33;;;11.70;;
28003;SDS011;15330;51.234;6.754;2023-05-10T03:01:46;14.98;;;10.75;;
28003;SDS011;15330;51.234;6.754;2023-05-10T03:04:12;17.65;;;11.00;;
28003;SDS011;15330;51.234;6.754;2023-05-10T03:06:38;15.65;;;11.48;;
28003;SDS011;15330;51.234;6.754;2023-05-10T03:09:04;18.45;;;10.77;;
28003;SDS011;15330;51.234;6.754;2023-05-10T03:17:15;16.48;;;10.38;;
28003;SDS011;15330;51.234;6.754;2023-05-10T03:19:49;15.60;;;10.88;;
28003;SDS011;15330;51.234;6.754;2023-05-10T03:22:21;15.88;;;11.82;;
28003;SDS011;15330;51.234;6.754;2023-05-10T03:24:51;17.83;;;11.55;;
28003;SDS011;15330;51.234;6.754;2023-05-10T03:27:19;17.80;;;11.10;;
28003;SDS011;15330;51.234;6.754;2023-05-10T03:29:47;17.48;;;10.90;;
28003;SDS011;15330;51.234;6.754;2023-05-10T03:32:13;15.98;;;11.02;;
28003;SDS011;15330;51.234;6.754;2023-05-10T03:34:42;24.30;;;12.73;;
28003;SDS011;15330;51.234;6.754;2023-05-10T03:37:10;18.10;;;10.48;;
28003;SDS011;15330;51.234;6.754;2023-05-10T03:39:35;17.55;;;12.13;;
28003;SDS011;15330;51.234;6.754;2023-05-10T03:42:01;19.65;;;12.38;;
28003;SDS011;15330;51.234;6.754;2023-05-10T03:44:26;18.17;;;12.05;;
28003;SDS011;15330;51.234;6.754;2023-05-10T03:46:51;19.13;;;11.75;;
28003;SDS011;15330;51.234;6.754;2023-05-10T03:49:17;19.25;;;11.63;;
28003;SDS011;15330;51.234;6.754;2023-05-10T03:51:42;18.92;;;12.68;;
28003;SDS011;15330;51.234;6.754;2023-05-10T03:54:07;22.80;;;12.23;;
28003;SDS011;15330;51.234;6.754;2023-05-10T03:56:33;23.60;;;12.90;;
28003;SDS011;15330;51.234;6.754;2023-05-10T03:58:58;24.17;;;13.98;;
28003;SDS011;15330;51.234;6.754;2023-05-10T04:01:24;21.55;;;14.57;;
28003;SDS011;15330;51.234;6.754;2023-05-10T04:03:49;38.50;;;15.02;;
28003;SDS011;15330;51.234;6.754;2023-05-10T04:06:14;24.67;;;13.40;;
28003;SDS011;15330;51.234;6.754;2023-05-10T04:08:40;26.30;;;13.85;;
28003;SDS011;15330;51.234;6.754;2023-05-10T04:11:09;23.90;;;15.25;;
28003;SDS011;15330;51.234;6.754;2023-05-10T04:13:36;25.42;;;14.82;;
28003;SDS011;15330;51.234;6.754;2023-05-10T04:16:02;27.33;;;15.77;;
28003;SDS011;15330;51.234;6.754;2023-05-10T04:18:27;26.98;;;17.27;;
28003;SDS011;15330;51.234;6.754;2023-05-10T04:20:53;28.83;;;18.10;;
28003;SDS011;15330;51.234;6.754;2023-05-10T04:23:18;33.03;;;19.30;;
28003;SDS011;15330;51.234;6.754;2023-05-10T04:25:44;33.47;;;19.35;;
28003;SDS011;15330;51.234;6.754;2023-05-10T04:28:09;36.13;;;21.08;;
28003;SDS011;15330;51.234;6.754;2023-05-10T04:30:35;37.28;;;19.73;;
28003;SDS011;15330;51.234;6.754;2023-05-10T04:33:00;29.70;;;17.80;;
28003;SDS011;15330;51.234;6.754;2023-05-10T04:35:27;37.88;;;19.10;;
28003;SDS011;15330;51.234;6.754;2023-05-10T04:37:53;30.13;;;17.70;;
28003;SDS011;15330;51.234;6.754;2023-05-10T04:40:18;29.83;;;17.45;;
28003;SDS011;15330;51.234;6.754;2023-05-10T04:42:44;32.47;;;19.50;;
28003;SDS011;15330;51.234;6.754;2023-05-10T04:45:10;30.38;;;18.08;;
28003;SDS011;15330;51.234;6.754;2023-05-10T04:47:35;32.65;;;19.25;;
28003;SDS011;15330;51.234;6.754;2023-05-10T04:50:02;36.97;;;21.65;;
28003;SDS011;15330;51.234;6.754;2023-05-10T04:52:28;47.80;;;28.05;;
28003;SDS011;15330;51.234;6.754;2023-05-10T04:54:54;48.50;;;24.67;;
28003;SDS011;15330;51.234;6.754;2023-05-10T04:57:19;41.53;;;22.73;;
28003;SDS011;15330;51.234;6.754;2023-05-10T04:59:45;40.30;;;21.65;;
28003;SDS011;15330;51.234;6.754;2023-05-10T05:02:10;38.40;;;21.90;;
28003;SDS011;15330;51.234;6.754;2023-05-10T05:04:35;42.75;;;24.98;;
28003;SDS011;15330;51.234;6.754;2023-05-10T05:07:01;45.88;;;25.27;;
28003;SDS011;15330;51.234;6.754;2023-05-10T05:09:26;36.40;;;21.65;;
28003;SDS011;15330;51.234;6.754;2023-05-10T05:11:52;75.65;;;40.47;;
28003;SDS011;15330;51.234;6.754;2023-05-10T05:14:17;41.83;;;22.92;;
28003;SDS011;15330;51.234;6.754;2023-05-10T05:16:42;45.10;;;26.80;;
28003;SDS011;15330;51.234;6.754;2023-05-10T05:19:08;42.67;;;23.50;;
28003;SDS011;15330;51.234;6.754;2023-05-10T05:21:33;35.25;;;21.98;;
28003;SDS011;15330;51.234;6.754;2023-05-10T05:23:58;35.42;;;21.20;;
28003;SDS011;15330;51.234;6.754;2023-05-10T05:26:24;46.38;;;24.67;;
28003;SDS011;15330;51.234;6.754;2023-05-10T05:28:51;43.15;;;24.05;;
28003;SDS011;15330;51.234;6.754;2023-05-10T05:31:19;48.90;;;26.30;;
28003;SDS011;15330;51.234;6.754;2023-05-10T05:33:45;41.03;;;22.92;;
28003;SDS011;15330;51.234;6.754;2023-05-10T05:36:10;36.10;;;20.00;;
28003;SDS011;15330;51.234;6.754;2023-05-10T05:38:35;36.63;;;21.95;;
28003;SDS011;15330;51.234;6.754;2023-05-10T05:41:01;34.53;;;19.48;;
28003;SDS011;15330;51.234;6.754;2023-05-10T05:43:27;49.72;;;25.85;;
28003;SDS011;15330;51.234;6.754;2023-05-10T05:45:53;34.08;;;19.45;;
28003;SDS011;15330;51.234;6.754;2023-05-10T05:48:18;33.92;;;18.90;;
28003;SDS011;15330;51.234;6.754;2023-05-10T05:50:44;30.17;;;17.27;;
28003;SDS011;15330;51.234;6.754;2023-05-10T05:53:10;32.97;;;18.30;;
28003;SDS011;15330;51.234;6.754;2023-05-10T05:55:36;28.05;;;17.75;;
28003;SDS011;15330;51.234;6.754;2023-05-10T05:58:01;27.73;;;16.58;;
28003;SDS011;15330;51.234;6.754;2023-05-10T06:00:27;41.75;;;18.80;;
28003;SDS011;15330;51.234;6.754;2023-05-10T06:02:52;32.20;;;16.73;;
28003;SDS011;15330;51.234;6.754;2023-05-10T06:05:18;48.97;;;27.17;;
28003;SDS011;15330;51.234;6.754;2023-05-10T06:07:43;51.13;;;28.38;;
28003;SDS011;15330;51.234;6.754;2023-05-10T06:10:08;32.95;;;17.60;;
28003;SDS011;15330;51.234;6.754;2023-05-10T06:12:34;28.70;;;18.15;;
28003;SDS011;15330;51.234;6.754;2023-05-10T06:15:00;33.97;;;18.90;;
28003;SDS011;15330;51.234;6.754;2023-05-10T06:17:26;38.33;;;19.15;;
28003;SDS011;15330;51.234;6.754;2023-05-10T06:19:52;35.20;;;20.95;;
28003;SDS011;15330;51.234;6.754;2023-05-10T06:22:17;41.15;;;21.65;;
28003;SDS011;15330;51.234;6.754;2023-05-10T06:24:43;40.10;;;22.92;;
28003;SDS011;15330;51.234;6.754;2023-05-10T06:27:08;41.78;;;23.00;;
28003;SDS011;15330;51.234;6.754;2023-05-10T06:29:34;46.97;;;24.20;;
28003;SDS011;15330;51.234;6.754;2023-05-10T06:31:59;43.30;;;24.48;;
28003;SDS011;15330;51.234;6.754;2023-05-10T06:34:24;39.25;;;21.67;;
28003;SDS011;15330;51.234;6.754;2023-05-10T06:36:50;35.13;;;19.73;;
28003;SDS011;15330;51.234;6.754;2023-05-10T06:39:16;37.92;;;22.02;;
28003;SDS011;15330;51.234;6.754;2023-05-10T06:41:42;58.08;;;30.70;;
28003;SDS011;15330;51.234;6.754;2023-05-10T06:44:07;39.83;;;21.58;;
28003;SDS011;15330;51.234;6.754;2023-05-10T06:46:33;38.35;;;21.23;;
28003;SDS011;15330;51.234;6.754;2023-05-10T06:48:58;37.25;;;21.15;;
28003;SDS011;15330;51.234;6.754;2023-05-10T06:51:24;45.47;;;22.20;;
28003;SDS011;15330;51.234;6.754;2023-05-10T06:53:49;36.20;;;20.50;;
28003;SDS011;15330;51.234;6.754;2023-05-10T06:56:15;43.03;;;22.10;;
28003;SDS011;15330;51.234;6.754;2023-05-10T06:58:40;44.05;;;21.23;;
28003;SDS011;15330;51.234;6.754;2023-05-10T07:01:06;37.30;;;19.52;;
28003;SDS011;15330;51.234;6.754;2023-05-10T07:03:31;46.90;;;21.40;;
28003;SDS011;15330;51.234;6.754;2023-05-10T07:06:03;57.40;;;27.63;;
28003;SDS011;15330;51.234;6.754;2023-05-10T07:08:30;46.67;;;23.52;;
28003;SDS011;15330;51.234;6.754;2023-05-10T07:10:59;41.15;;;21.77;;
28003;SDS011;15330;51.234;6.754;2023-05-10T07:13:26;49.47;;;23.50;;
28003;SDS011;15330;51.234;6.754;2023-05-10T07:15:51;49.30;;;22.65;;
28003;SDS011;15330;51.234;6.754;2023-05-10T07:18:16;52.50;;;27.23;;
28003;SDS011;15330;51.234;6.754;2023-05-10T07:20:42;47.15;;;22.85;;
28003;SDS011;15330;51.234;6.754;2023-05-10T07:23:07;50.08;;;23.38;;
28003;SDS011;15330;51.234;6.754;2023-05-10T07:25:33;49.50;;;23.35;;
28003;SDS011;15330;51.234;6.754;2023-05-10T07:27:58;39.85;;;18.67;;
28003;SDS011;15330;51.234;6.754;2023-05-10T07:30:23;41.60;;;21.52;;
28003;SDS011;15330;51.234;6.754;2023-05-10T07:32:49;32.22;;;18.23;;
28003;SDS011;15330;51.234;6.754;2023-05-10T07:35:14;57.67;;;20.23;;
28003;SDS011;15330;51.234;6.754;2023-05-10T07:37:40;30.33;;;17.60;;
28003;SDS011;15330;51.234;6.754;2023-05-10T07:40:05;33.92;;;18.52;;
28003;SDS011;15330;51.234;6.754;2023-05-10T07:42:31;40.30;;;19.50;;
28003;SDS011;15330;51.234;6.754;2023-05-10T07:44:57;30.63;;;17.77;;
28003;SDS011;15330;51.234;6.754;2023-05-10T07:47:22;41.25;;;20.75;;
28003;SDS011;15330;51.234;6.754;2023-05-10T07:49:48;42.10;;;22.40;;
28003;SDS011;15330;51.234;6.754;2023-05-10T07:52:13;50.00;;;23.88;;
28003;SDS011;15330;51.234;6.754;2023-05-10T07:54:39;51.33;;;25.02;;
28003;SDS011;15330;51.234;6.754;2023-05-10T07:57:04;54.08;;;27.05;;
28003;SDS011;15330;51.234;6.754;2023-05-10T07:59:30;57.83;;;28.33;;
28003;SDS011;15330;51.234;6.754;2023-05-10T08:01:55;62.72;;;29.02;;
28003;SDS011;15330;51.234;6.754;2023-05-10T08:04:21;65.13;;;32.13;;
28003;SDS011;15330;51.234;6.754;2023-05-10T08:06:47;57.17;;;28.90;;
28003;SDS011;15330;51.234;6.754;2023-05-10T08:09:12;63.67;;;30.75;;
28003;SDS011;15330;51.234;6.754;2023-05-10T08:11:38;56.63;;;28.25;;
28003;SDS011;15330;51.234;6.754;2023-05-10T08:14:03;67.88;;;33.20;;
28003;SDS011;15330;51.234;6.754;2023-05-10T08:16:29;62.00;;;32.63;;
28003;SDS011;15330;51.234;6.754;2023-05-10T08:18:54;78.65;;;37.38;;
28003;SDS011;15330;51.234;6.754;2023-05-10T08:21:20;60.30;;;30.13;;
28003;SDS011;15330;51.234;6.754;2023-05-10T08:23:45;62.40;;;33.25;;
28003;SDS011;15330;51.234;6.754;2023-05-10T08:26:11;61.90;;;32.10;;
28003;SDS011;15330;51.234;6.754;2023-05-10T08:28:36;62.00;;;33.92;;
28003;SDS011;15330;51.234;6.754;2023-05-10T08:31:01;81.18;;;38.53;;
28003;SDS011;15330;51.234;6.754;2023-05-10T08:33:27;68.70;;;34.35;;
28003;SDS011;15330;51.234;6.754;2023-05-10T08:35:52;66.45;;;34.30;;
28003;SDS011;15330;51.234;6.754;2023-05-10T08:38:18;65.65;;;33.92;;
28003;SDS011;15330;51.234;6.754;2023-05-10T08:40:43;61.90;;;31.52;;
28003;SDS011;15330;51.234;6.754;2023-05-10T08:43:10;59.65;;;31.00;;
28003;SDS011;15330;51.234;6.754;2023-05-10T08:45:43;56.17;;;31.02;;
28003;SDS011;15330;51.234;6.754;2023-05-10T08:48:13;57.65;;;29.95;;
28003;SDS011;15330;51.234;6.754;2023-05-10T08:50:39;56.90;;;30.00;;
28003;SDS011;15330;51.234;6.754;2023-05-10T08:53:10;55.22;;;28.63;;
28003;SDS011;15330;51.234;6.754;2023-05-10T08:55:36;50.92;;;28.23;;
28003;SDS011;15330;51.234;6.754;2023-05-10T08:58:06;52.15;;;26.83;;
28003;SDS011;15330;51.234;6.754;2023-05-10T09:00:32;68.07;;;34.75;;
28003;SDS011;15330;51.234;6.754;2023-05-10T09:02:58;47.08;;;25.50;;
28003;SDS011;15330;51.234;6.754;2023-05-10T09:05:24;55.35;;;29.08;;
28003;SDS011;15330;51.234;6.754;2023-05-10T09:07:50;51.70;;;26.90;;
28003;SDS011;15330;51.234;6.754;2023-05-10T09:10:15;43.13;;;22.88;;
28003;SDS011;15330;51.234;6.754;2023-05-10T09:12:41;37.53;;;22.00;;
28003;SDS011;15330;51.234;6.754;2023-05-10T09:15:09;40.58;;;21.13;;
28003;SDS011;15330;51.234;6.754;2023-05-10T09:17:34;32.85;;;19.05;;
28003;SDS011;15330;51.234;6.754;2023-05-10T09:20:02;47.40;;;25.70;;
28003;SDS011;15330;51.234;6.754;2023-05-10T09:22:31;38.40;;;22.75;;
28003;SDS011;15330;51.234;6.754;2023-05-10T09:27:33;55.35;;;32.20;;
28003;SDS011;15330;51.234;6.754;2023-05-10T09:29:59;38.33;;;21.13;;
28003;SDS011;15330;51.234;6.754;2023-05-10T09:32:37;38.60;;;22.05;;
28003;SDS011;15330;51.234;6.754;2023-05-10T09:35:07;29.83;;;18.35;;
28003;SDS011;15330;51.234;6.754;2023-05-10T09:37:41;40.25;;;22.52;;
28003;SDS011;15330;51.234;6.754;2023-05-10T09:40:12;32.50;;;17.63;;
28003;SDS011;15330;51.234;6.754;2023-05-10T09:42:38;26.45;;;17.65;;
28003;SDS011;15330;51.234;6.754;2023-05-10T09:45:05;26.92;;;17.25;;
28003;SDS011;15330;51.234;6.754;2023-05-10T09:47:36;26.50;;;16.05;;
28003;SDS011;15330;51.234;6.754;2023-05-10T09:50:02;32.38;;;17.88;;
28003;SDS011;15330;51.234;6.754;2023-05-10T09:52:29;29.23;;;17.50;;
28003;SDS011;15330;51.234;6.754;2023-05-10T09:54:56;30.52;;;17.70;;
28003;SDS011;15330;51.234;6.754;2023-05-10T09:57:21;28.27;;;17.08;;
28003;SDS011;15330;51.234;6.754;2023-05-10T09:59:47;27.83;;;17.05;;
28003;SDS011;15330;51.234;6.754;2023-05-10T10:02:14;26.30;;;17.27;;
28003;SDS011;15330;51.234;6.754;2023-05-10T10:04:40;27.58;;;17.40;;
28003;SDS011;15330;51.234;6.754;2023-05-10T10:07:06;25.38;;;15.40;;
28003;SDS011;15330;51.234;6.754;2023-05-10T10:09:32;31.48;;;18.83;;
28003;SDS011;15330;51.234;6.754;2023-05-10T10:11:59;29.40;;;17.45;;
28003;SDS011;15330;51.234;6.754;2023-05-10T10:14:25;27.90;;;17.35;;
28003;SDS011;15330;51.234;6.754;2023-05-10T10:16:51;26.63;;;16.38;;
28003;SDS011;15330;51.234;6.754;2023-05-10T10:19:19;26.88;;;15.25;;
28003;SDS011;15330;51.234;6.754;2023-05-10T10:21:46;25.90;;;16.88;;
28003;SDS011;15330;51.234;6.754;2023-05-10T10:24:12;28.15;;;18.23;;
28003;SDS011;15330;51.234;6.754;2023-05-10T10:26:37;26.85;;;16.55;;
28003;SDS011;15330;51.234;6.754;2023-05-10T10:31:38;26.27;;;17.33;;
28003;SDS011;15330;51.234;6.754;2023-05-10T10:34:07;27.08;;;18.05;;
28003;SDS011;15330;51.234;6.754;2023-05-10T10:36:42;33.13;;;19.17;;
28003;SDS011;15330;51.234;6.754;2023-05-10T10:39:09;25.02;;;16.20;;
28003;SDS011;15330;51.234;6.754;2023-05-10T10:41:36;27.02;;;16.70;;
28003;SDS011;15330;51.234;6.754;2023-05-10T10:44:36;25.73;;;16.67;;
28003;SDS011;15330;51.234;6.754;2023-05-10T10:54:39;29.38;;;15.55;;
28003;SDS011;15330;51.234;6.754;2023-05-10T10:57:14;24.83;;;16.00;;
28003;SDS011;15330;51.234;6.754;2023-05-10T10:59:42;23.70;;;14.70;;
28003;SDS011;15330;51.234;6.754;2023-05-10T11:02:09;29.90;;;16.90;;
28003;SDS011;15330;51.234;6.754;2023-05-10T11:04:43;25.42;;;15.75;;
28003;SDS011;15330;51.234;6.754;2023-05-10T11:07:17;32.35;;;19.70;;
28003;SDS011;15330;51.234;6.754;2023-05-10T11:09:43;37.60;;;20.27;;
28003;SDS011;15330;51.234;6.754;2023-05-10T11:12:10;30.80;;;20.00;;
28003;SDS011;15330;51.234;6.754;2023-05-10T11:14:35;29.33;;;19.38;;
28003;SDS011;15330;51.234;6.754;2023-05-10T11:17:01;31.50;;;19.40;;
28003;SDS011;15330;51.234;6.754;2023-05-10T11:19:27;32.00;;;20.52;;
28003;SDS011;15330;51.234;6.754;2023-05-10T11:24:30;33.42;;;20.83;;
28003;SDS011;15330;51.234;6.754;2023-05-10T11:26:55;33.15;;;20.40;;
28003;SDS011;15330;51.234;6.754;2023-05-10T11:29:21;32.08;;;19.80;;
28003;SDS011;15330;51.234;6.754;2023-05-10T11:31:47;33.75;;;20.90;;
28003;SDS011;15330;51.234;6.754;2023-05-10T11:37:12;31.98;;;19.05;;
28003;SDS011;15330;51.234;6.754;2023-05-10T11:39:38;29.83;;;20.88;;
28003;SDS011;15330;51.234;6.754;2023-05-10T11:42:03;28.45;;;19.60;;
28003;SDS011;15330;51.234;6.754;2023-05-10T11:44:29;35.50;;;20.20;;
28003;SDS011;15330;51.234;6.754;2023-05-10T11:46:58;35.03;;;21.30;;
28003;SDS011;15330;51.234;6.754;2023-05-10T11:49:26;32.45;;;20.60;;
28003;SDS011;15330;51.234;6.754;2023-05-10T11:51:52;28.60;;;18.85;;
28003;SDS011;15330;51.234;6.754;2023-05-10T11:54:17;29.15;;;18.38;;
28003;SDS011;15330;51.234;6.754;2023-05-10T11:56:42;25.08;;;16.63;;
28003;SDS011;15330;51.234;6.754;2023-05-10T11:59:08;21.85;;;15.23;;
28003;SDS011;15330;51.234;6.754;2023-05-10T12:01:33;28.48;;;17.02;;
28003;SDS011;15330;51.234;6.754;2023-05-10T12:04:00;23.00;;;16.00;;
28003;SDS011;15330;51.234;6.754;2023-05-10T12:06:26;23.45;;;17.30;;
28003;SDS011;15330;51.234;6.754;2023-05-10T12:08:56;28.20;;;17.52;;
28003;SDS011;15330;51.234;6.754;2023-05-10T12:11:26;26.40;;;18.23;;
28003;SDS011;15330;51.234;6.754;2023-05-10T12:13:52;24.48;;;16.80;;
28003;SDS011;15330;51.234;6.754;2023-05-10T12:16:19;27.88;;;19.13;;
28003;SDS011;15330;51.234;6.754;2023-05-10T12:18:49;29.75;;;18.00;;
28003;SDS011;15330;51.234;6.754;2023-05-10T12:21:19;25.25;;;18.08;;
28003;SDS011;15330;51.234;6.754;2023-05-10T12:23:46;24.77;;;17.88;;
28003;SDS011;15330;51.234;6.754;2023-05-10T12:26:13;25.77;;;17.95;;
28003;SDS011;15330;51.234;6.754;2023-05-10T12:28:39;23.85;;;16.65;;
28003;SDS011;15330;51.234;6.754;2023-05-10T12:31:05;24.05;;;16.98;;
28003;SDS011;15330;51.234;6.754;2023-05-10T12:33:52;22.63;;;17.05;;
28003;SDS011;15330;51.234;6.754;2023-05-10T12:36:17;26.05;;;17.05;;
28003;SDS011;15330;51.234;6.754;2023-05-10T12:38:49;25.58;;;17.85;;
28003;SDS011;15330;51.234;6.754;2023-05-10T12:41:18;26.60;;;18.73;;
28003;SDS011;15330;51.234;6.754;2023-05-10T12:43:43;27.50;;;19.38;;
28003;SDS011;15330;51.234;6.754;2023-05-10T12:46:16;26.50;;;17.98;;
28003;SDS011;15330;51.234;6.754;2023-05-10T12:48:43;25.95;;;17.60;;
28003;SDS011;15330;51.234;6.754;2023-05-10T12:51:09;27.80;;;19.55;;
28003;SDS011;15330;51.234;6.754;2023-05-10T12:53:37;27.52;;;19.08;;
28003;SDS011;15330;51.234;6.754;2023-05-10T12:56:04;24.92;;;17.60;;
28003;SDS011;15330;51.234;6.754;2023-05-10T12:58:29;30.55;;;18.73;;
28003;SDS011;15330;51.234;6.754;2023-05-10T13:00:55;31.15;;;18.30;;
28003;SDS011;15330;51.234;6.754;2023-05-10T13:03:21;30.83;;;19.10;;
28003;SDS011;15330;51.234;6.754;2023-05-10T13:05:47;28.95;;;20.02;;
28003;SDS011;15330;51.234;6.754;2023-05-10T13:08:12;31.02;;;20.23;;
28003;SDS011;15330;51.234;6.754;2023-05-10T13:10:38;28.55;;;19.48;;
28003;SDS011;15330;51.234;6.754;2023-05-10T13:13:03;27.10;;;19.83;;
28003;SDS011;15330;51.234;6.754;2023-05-10T13:15:31;26.60;;;18.40;;
28003;SDS011;15330;51.234;6.754;2023-05-10T13:17:56;30.27;;;20.70;;
28003;SDS011;15330;51.234;6.754;2023-05-10T13:20:22;26.60;;;18.65;;
28003;SDS011;15330;51.234;6.754;2023-05-10T13:22:47;25.40;;;18.02;;
28003;SDS011;15330;51.234;6.754;2023-05-10T13:25:12;21.88;;;17.40;;
28003;SDS011;15330;51.234;6.754;2023-05-10T13:27:39;23.02;;;16.92;;
28003;SDS011;15330;51.234;6.754;2023-05-10T13:30:04;27.15;;;17.42;;
28003;SDS011;15330;51.234;6.754;2023-05-10T13:32:30;26.83;;;17.45;;
28003;SDS011;15330;51.234;6.754;2023-05-10T13:34:56;26.77;;;18.13;;
28003;SDS011;15330;51.234;6.754;2023-05-10T13:37:21;23.05;;;16.58;;
28003;SDS011;15330;51.234;6.754;2023-05-10T13:39:47;24.98;;;17.38;;
28003;SDS011;15330;51.234;6.754;2023-05-10T13:42:12;24.17;;;17.60;;
28003;SDS011;15330;51.234;6.754;2023-05-10T13:44:38;30.15;;;18.75;;
28003;SDS011;15330;51.234;6.754;2023-05-10T13:47:04;25.23;;;17.88;;
28003;SDS011;15330;51.234;6.754;2023-05-10T13:49:29;25.60;;;17.80;;
28003;SDS011;15330;51.234;6.754;2023-05-10T13:51:55;28.40;;;18.25;;
28003;SDS011;15330;51.234;6.754;2023-05-10T13:54:20;26.33;;;17.35;;
28003;SDS011;15330;51.234;6.754;2023-05-10T13:56:47;29.00;;;18.05;;
28003;SDS011;15330;51.234;6.754;2023-05-10T13:59:13;24.75;;;17.02;;
28003;SDS011;15330;51.234;6.754;2023-05-10T14:01:39;26.95;;;17.95;;
28003;SDS011;15330;51.234;6.754;2023-05-10T14:04:05;29.13;;;18.92;;
28003;SDS011;15330;51.234;6.754;2023-05-10T14:06:31;25.25;;;17.60;;
28003;SDS011;15330;51.234;6.754;2023-05-10T14:08:56;27.05;;;17.83;;
28003;SDS011;15330;51.234;6.754;2023-05-10T14:11:22;26.73;;;17.83;;
28003;SDS011;15330;51.234;6.754;2023-05-10T14:13:50;26.27;;;16.98;;
28003;SDS011;15330;51.234;6.754;2023-05-10T14:16:15;26.98;;;18.23;;
28003;SDS011;15330;51.234;6.754;2023-05-10T14:18:40;25.38;;;16.17;;
28003;SDS011;15330;51.234;6.754;2023-05-10T14:21:06;23.88;;;16.15;;
28003;SDS011;15330;51.234;6.754;2023-05-10T14:23:37;23.95;;;15.73;;
28003;SDS011;15330;51.234;6.754;2023-05-10T14:26:03;22.73;;;14.88;;
28003;SDS011;15330;51.234;6.754;2023-05-10T14:28:28;18.42;;;12.65;;
28003;SDS011;15330;51.234;6.754;2023-05-10T14:30:54;20.50;;;13.55;;
28003;SDS011;15330;51.234;6.754;2023-05-10T14:33:20;17.58;;;12.18;;
28003;SDS011;15330;51.234;6.754;2023-05-10T14:35:46;18.25;;;12.57;;
28003;SDS011;15330;51.234;6.754;2023-05-10T14:38:12;17.13;;;11.70;;
28003;SDS011;15330;51.234;6.754;2023-05-10T14:40:37;16.45;;;11.13;;
28003;SDS011;15330;51.234;6.754;2023-05-10T14:43:03;12.05;;;9.30;;
28003;SDS011;15330;51.234;6.754;2023-05-10T14:45:28;14.07;;;9.13;;
28003;SDS011;15330;51.234;6.754;2023-05-10T14:47:53;13.13;;;9.23;;
28003;SDS011;15330;51.234;6.754;2023-05-10T14:50:19;12.85;;;9.73;;
28003;SDS011;15330;51.234;6.754;2023-05-10T14:52:44;17.92;;;10.15;;
28003;SDS011;15330;51.234;6.754;2023-05-10T14:55:10;12.82;;;9.57;;
28003;SDS011;15330;51.234;6.754;2023-05-10T14:57:35;12.93;;;9.95;;
28003;SDS011;15330;51.234;6.754;2023-05-10T15:00:02;10.68;;;8.38;;
28003;SDS011;15330;51.234;6.754;2023-05-10T15:02:30;15.63;;;9.45;;